sensor_id;sensor_type;location;lat;lon;timestamp;P1;durP1;ratioP1;P2;durP2;ratioP2
10311;SDS011;5201;48.776;9.128;2023-03-01T00:01:04;16.70;;;8.40;;
10311;SDS011;5201;48.776;9.128;2023-03-01T00:03:31;12.23;;;7.53;;
10311;SDS011;5201;48.776;9.128;2023-03-01T00:05:57;13.33;;;8.20;;
10311;SDS011;5201;48.776;9.128;2023-03-01T00:08:23;15.27;;;8.83;;
10311;SDS011;5201;48.776;9.128;2023-03-01T00:10:49;13.90;;;8.33;;
10311;SDS011;5201;48.776;9.128;2023-03-01T00:13:27;13.27;;;8.03;;
10311;SDS011;5201;48.776;9.128;2023-03-01T00:15:53;14.87;;;8.13;;
10311;SDS011;5201;48.776;9.128;2023-03-01T00:18:18;16.50;;;9.17;;
10311;SDS011;5201;48.776;9.128;2023-03-01T00:20:54;14.43;;;8.87;;
10311;SDS011;5201;48.776;9.128;2023-03-01T00:23:20;15.20;;;8.43;;
10311;SDS011;5201;48.776;9.128;2023-03-01T00:25:46;18.53;;;9.70;;
10311;SDS011;5201;48.776;9.128;2023-03-01T00:28:12;15.60;;;9.27;;
10311;SDS011;5201;48.776;9.128;2023-03-01T00:30:38;17.77;;;8.80;;
10311;SDS011;5201;48.776;9.128;2023-03-01T00:33:03;18.73;;;9.07;;
10311;SDS011;5201;48.776;9.128;2023-03-01T00:35:29;15.50;;;8.37;;
10311;SDS011;5201;48.776;9.128;2023-03-01T00:37:57;17.77;;;9.37;;
10311;SDS011;5201;48.776;9.128;2023-03-01T00:40:27;15.23;;;9.17;;
10311;SDS011;5201;48.776;9.128;2023-03-01T00:42:53;13.27;;;9.00;;
10311;SDS011;5201;48.776;9.128;2023-03-01T00:45:19;13.07;;;8.40;;
10311;SDS011;5201;48.776;9.128;2023-03-01T00:47:45;15.77;;;8.93;;
10311;SDS011;5201;48.776;9.128;2023-03-01T00:50:11;15.33;;;9.23;;
10311;SDS011;5201;48.776;9.128;2023-03-01T00:52:37;16.00;;;9.07;;
10311;SDS011;5201;48.776;9.128;2023-03-01T00:55:03;13.50;;;8.67;;
10311;SDS011;5201;48.776;9.128;2023-03-01T00:57:29;14.33;;;8.10;;
10311;SDS011;5201;48.776;9.128;2023-03-01T00:59:55;13.97;;;8.53;;
10311;SDS011;5201;48.776;9.128;2023-03-01T01:02:21;17.30;;;8.30;;
10311;SDS011;5201;48.776;9.128;2023-03-01T01:04:47;17.23;;;9.03;;
10311;SDS011;5201;48.776;9.128;2023-03-01T01:07:12;14.17;;;8.20;;
10311;SDS011;5201;48.776;9.128;2023-03-01T01:09:39;20.23;;;9.00;;
10311;SDS011;5201;48.776;9.128;2023-03-01T01:12:04;15.17;;;9.40;;
10311;SDS011;5201;48.776;9.128;2023-03-01T01:14:30;16.27;;;8.00;;
10311;SDS011;5201;48.776;9.128;2023-03-01T01:16:56;14.20;;;8.77;;
10311;SDS011;5201;48.776;9.128;2023-03-01T01:19:21;13.77;;;8.53;;
10311;SDS011;5201;48.776;9.128;2023-03-01T01:21:48;13.90;;;8.20;;
10311;SDS011;5201;48.776;9.128;2023-03-01T01:24:14;15.60;;;8.90;;
10311;SDS011;5201;48.776;9.128;2023-03-01T01:26:40;12.90;;;8.33;;
10311;SDS011;5201;48.776;9.128;2023-03-01T01:29:06;14.77;;;8.70;;
10311;SDS011;5201;48.776;9.128;2023-03-01T01:31:33;12.80;;;8.10;;
10311;SDS011;5201;48.776;9.128;2023-03-01T01:34:00;14.13;;;7.93;;
10311;SDS011;5201;48.776;9.128;2023-03-01T01:36:27;14.20;;;7.90;;
10311;SDS011;5201;48.776;9.128;2023-03-01T01:38:53;15.43;;;8.13;;
10311;SDS011;5201;48.776;9.128;2023-03-01T01:41:19;13.77;;;8.40;;
10311;SDS011;5201;48.776;9.128;2023-03-01T01:43:46;15.47;;;8.83;;
10311;SDS011;5201;48.776;9.128;2023-03-01T01:46:43;17.97;;;9.13;;
10311;SDS011;5201;48.776;9.128;2023-03-01T01:51:47;18.97;;;9.40;;
10311;SDS011;5201;48.776;9.128;2023-03-01T01:54:23;17.23;;;9.23;;
10311;SDS011;5201;48.776;9.128;2023-03-01T01:56:55;12.90;;;8.60;;
10311;SDS011;5201;48.776;9.128;2023-03-01T01:59:24;13.50;;;8.60;;
10311;SDS011;5201;48.776;9.128;2023-03-01T02:01:52;14.30;;;8.83;;
10311;SDS011;5201;48.776;9.128;2023-03-01T02:04:18;16.63;;;9.40;;
10311;SDS011;5201;48.776;9.128;2023-03-01T02:07:26;15.40;;;8.90;;
10311;SDS011;5201;48.776;9.128;2023-03-01T02:09:48;14.97;;;8.50;;
10311;SDS011;5201;48.776;9.128;2023-03-01T02:12:16;15.67;;;9.17;;
10311;SDS011;5201;48.776;9.128;2023-03-01T02:14:44;19.67;;;10.10;;
10311;SDS011;5201;48.776;9.128;2023-03-01T02:17:11;16.83;;;8.83;;
10311;SDS011;5201;48.776;9.128;2023-03-01T02:19:41;16.83;;;8.80;;
10311;SDS011;5201;48.776;9.128;2023-03-01T02:22:22;15.53;;;8.87;;
10311;SDS011;5201;48.776;9.128;2023-03-01T02:30:38;18.10;;;10.37;;
10311;SDS011;5201;48.776;9.128;2023-03-01T02:33:24;16.60;;;8.60;;
10311;SDS011;5201;48.776;9.128;2023-03-01T02:35:51;22.73;;;10.07;;
10311;SDS011;5201;48.776;9.128;2023-03-01T02:38:19;15.67;;;9.40;;
10311;SDS011;5201;48.776;9.128;2023-03-01T02:40:45;15.83;;;9.43;;
10311;SDS011;5201;48.776;9.128;2023-03-01T02:43:12;15.00;;;9.03;;
10311;SDS011;5201;48.776;9.128;2023-03-01T02:45:38;14.40;;;9.83;;
10311;SDS011;5201;48.776;9.128;2023-03-01T02:48:13;21.27;;;9.90;;
10311;SDS011;5201;48.776;9.128;2023-03-01T02:53:21;16.00;;;9.60;;
10311;SDS011;5201;48.776;9.128;2023-03-01T02:55:55;13.93;;;8.97;;
10311;SDS011;5201;48.776;9.128;2023-03-01T02:58:21;19.40;;;10.00;;
10311;SDS011;5201;48.776;9.128;2023-03-01T03:00:46;16.60;;;9.00;;
10311;SDS011;5201;48.776;9.128;2023-03-01T03:03:14;15.67;;;8.40;;
10311;SDS011;5201;48.776;9.128;2023-03-01T03:05:41;17.40;;;9.40;;
10311;SDS011;5201;48.776;9.128;2023-03-01T03:08:07;18.20;;;9.63;;
10311;SDS011;5201;48.776;9.128;2023-03-01T03:10:35;18.03;;;9.37;;
10311;SDS011;5201;48.776;9.128;2023-03-01T03:13:07;15.17;;;9.47;;
10311;SDS011;5201;48.776;9.128;2023-03-01T03:15:37;16.13;;;9.73;;
10311;SDS011;5201;48.776;9.128;2023-03-01T03:18:05;17.03;;;9.23;;
10311;SDS011;5201;48.776;9.128;2023-03-01T03:20:33;16.10;;;8.83;;
10311;SDS011;5201;48.776;9.128;2023-03-01T03:22:59;16.70;;;9.53;;
10311;SDS011;5201;48.776;9.128;2023-03-01T03:25:26;15.73;;;8.80;;
10311;SDS011;5201;48.776;9.128;2023-03-01T03:27:53;18.13;;;9.50;;
10311;SDS011;5201;48.776;9.128;2023-03-01T03:30:22;15.23;;;8.57;;
10311;SDS011;5201;48.776;9.128;2023-03-01T03:32:52;17.00;;;9.73;;
10311;SDS011;5201;48.776;9.128;2023-03-01T03:35:18;16.67;;;10.00;;
10311;SDS011;5201;48.776;9.128;2023-03-01T03:37:46;17.87;;;9.77;;
10311;SDS011;5201;48.776;9.128;2023-03-01T03:40:28;18.63;;;9.67;;
10311;SDS011;5201;48.776;9.128;2023-03-01T03:42:58;17.60;;;9.97;;
10311;SDS011;5201;48.776;9.128;2023-03-01T03:45:24;19.33;;;10.67;;
10311;SDS011;5201;48.776;9.128;2023-03-01T03:47:50;16.37;;;9.63;;
10311;SDS011;5201;48.776;9.128;2023-03-01T03:50:16;19.00;;;9.33;;
10311;SDS011;5201;48.776;9.128;2023-03-01T03:52:42;16.90;;;10.63;;
10311;SDS011;5201;48.776;9.128;2023-03-01T03:55:09;19.27;;;9.87;;
10311;SDS011;5201;48.776;9.128;2023-03-01T03:57:36;20.00;;;10.90;;
10311;SDS011;5201;48.776;9.128;2023-03-01T04:00:03;18.17;;;10.73;;
10311;SDS011;5201;48.776;9.128;2023-03-01T04:02:30;19.13;;;10.23;;
10311;SDS011;5201;48.776;9.128;2023-03-01T04:04:56;20.23;;;10.73;;
10311;SDS011;5201;48.776;9.128;2023-03-01T04:07:21;21.97;;;11.40;;
10311;SDS011;5201;48.776;9.128;2023-03-01T04:09:47;25.23;;;12.40;;
10311;SDS011;5201;48.776;9.128;2023-03-01T04:12:13;27.33;;;12.20;;
10311;SDS011;5201;48.776;9.128;2023-03-01T04:14:39;38.80;;;17.20;;
10311;SDS011;5201;48.776;9.128;2023-03-01T04:17:04;23.07;;;11.50;;
10311;SDS011;5201;48.776;9.128;2023-03-01T04:19:33;18.37;;;10.43;;
10311;SDS011;5201;48.776;9.128;2023-03-01T04:22:04;17.27;;;10.73;;
10311;SDS011;5201;48.776;9.128;2023-03-01T04:24:34;19.73;;;10.13;;
10311;SDS011;5201;48.776;9.128;2023-03-01T04:27:01;18.47;;;11.17;;
10311;SDS011;5201;48.776;9.128;2023-03-01T04:29:27;18.20;;;10.10;;
10311;SDS011;5201;48.776;9.128;2023-03-01T04:31:52;14.53;;;9.47;;
10311;SDS011;5201;48.776;9.128;2023-03-01T04:34:18;19.30;;;10.87;;
10311;SDS011;5201;48.776;9.128;2023-03-01T04:36:44;19.00;;;11.13;;
10311;SDS011;5201;48.776;9.128;2023-03-01T04:39:09;19.27;;;9.70;;
10311;SDS011;5201;48.776;9.128;2023-03-01T04:41:38;17.83;;;10.60;;
10311;SDS011;5201;48.776;9.128;2023-03-01T04:44:05;20.10;;;12.07;;
10311;SDS011;5201;48.776;9.128;2023-03-01T04:46:31;18.97;;;10.43;;
10311;SDS011;5201;48.776;9.128;2023-03-01T04:48:57;20.20;;;10.93;;
10311;SDS011;5201;48.776;9.128;2023-03-01T04:51:22;19.93;;;10.63;;
10311;SDS011;5201;48.776;9.128;2023-03-01T04:53:48;16.17;;;9.77;;
10311;SDS011;5201;48.776;9.128;2023-03-01T04:56:14;21.53;;;11.03;;
10311;SDS011;5201;48.776;9.128;2023-03-01T04:58:42;17.50;;;10.30;;
10311;SDS011;5201;48.776;9.128;2023-03-01T05:01:12;19.57;;;9.97;;
10311;SDS011;5201;48.776;9.128;2023-03-01T05:03:44;20.93;;;10.90;;
10311;SDS011;5201;48.776;9.128;2023-03-01T05:06:12;17.00;;;10.03;;
10311;SDS011;5201;48.776;9.128;2023-03-01T05:08:38;16.53;;;9.93;;
10311;SDS011;5201;48.776;9.128;2023-03-01T05:11:05;19.40;;;10.27;;
10311;SDS011;5201;48.776;9.128;2023-03-01T05:13:33;15.17;;;9.70;;
10311;SDS011;5201;48.776;9.128;2023-03-01T05:16:01;17.33;;;10.17;;
10311;SDS011;5201;48.776;9.128;2023-03-01T05:18:28;17.13;;;10.50;;
10311;SDS011;5201;48.776;9.128;2023-03-01T05:20:55;17.17;;;9.60;;
10311;SDS011;5201;48.776;9.128;2023-03-01T05:23:28;17.33;;;10.87;;
10311;SDS011;5201;48.776;9.128;2023-03-01T05:25:57;19.10;;;9.73;;
10311;SDS011;5201;48.776;9.128;2023-03-01T05:28:24;18.20;;;10.30;;
10311;SDS011;5201;48.776;9.128;2023-03-01T05:30:51;18.60;;;9.57;;
10311;SDS011;5201;48.776;9.128;2023-03-01T05:33:17;19.50;;;9.97;;
10311;SDS011;5201;48.776;9.128;2023-03-01T05:35:44;21.90;;;10.53;;
10311;SDS011;5201;48.776;9.128;2023-03-01T05:38:10;19.50;;;10.50;;
10311;SDS011;5201;48.776;9.128;2023-03-01T05:40:43;19.27;;;9.90;;
10311;SDS011;5201;48.776;9.128;2023-03-01T05:43:10;18.03;;;9.37;;
10311;SDS011;5201;48.776;9.128;2023-03-01T05:45:37;19.10;;;10.40;;
10311;SDS011;5201;48.776;9.128;2023-03-01T05:48:04;21.57;;;11.93;;
10311;SDS011;5201;48.776;9.128;2023-03-01T05:50:34;18.17;;;10.73;;
10311;SDS011;5201;48.776;9.128;2023-03-01T05:53:06;21.27;;;10.93;;
10311;SDS011;5201;48.776;9.128;2023-03-01T05:55:35;16.63;;;9.93;;
10311;SDS011;5201;48.776;9.128;2023-03-01T05:58:02;17.70;;;10.33;;
10311;SDS011;5201;48.776;9.128;2023-03-01T06:00:30;18.53;;;10.77;;
10311;SDS011;5201;48.776;9.128;2023-03-01T06:02:56;14.60;;;9.80;;
10311;SDS011;5201;48.776;9.128;2023-03-01T06:05:23;18.77;;;9.57;;
10311;SDS011;5201;48.776;9.128;2023-03-01T06:07:48;27.80;;;10.90;;
10311;SDS011;5201;48.776;9.128;2023-03-01T06:10:15;18.80;;;11.07;;
10311;SDS011;5201;48.776;9.128;2023-03-01T06:12:41;20.93;;;11.17;;
10311;SDS011;5201;48.776;9.128;2023-03-01T06:15:08;18.43;;;9.97;;
10311;SDS011;5201;48.776;9.128;2023-03-01T06:17:38;18.40;;;10.30;;
10311;SDS011;5201;48.776;9.128;2023-03-01T06:20:06;20.70;;;10.20;;
10311;SDS011;5201;48.776;9.128;2023-03-01T06:22:39;22.27;;;10.77;;
10311;SDS011;5201;48.776;9.128;2023-03-01T06:25:05;18.07;;;10.33;;
10311;SDS011;5201;48.776;9.128;2023-03-01T06:27:31;21.47;;;10.20;;
10311;SDS011;5201;48.776;9.128;2023-03-01T06:29:57;21.97;;;10.03;;
10311;SDS011;5201;48.776;9.128;2023-03-01T06:32:22;17.93;;;9.80;;
10311;SDS011;5201;48.776;9.128;2023-03-01T06:34:49;17.83;;;9.87;;
10311;SDS011;5201;48.776;9.128;2023-03-01T06:37:15;18.83;;;10.13;;
10311;SDS011;5201;48.776;9.128;2023-03-01T06:39:40;18.20;;;10.37;;
10311;SDS011;5201;48.776;9.128;2023-03-01T06:42:07;20.20;;;10.70;;
10311;SDS011;5201;48.776;9.128;2023-03-01T06:44:33;17.30;;;9.73;;
10311;SDS011;5201;48.776;9.128;2023-03-01T06:46:58;14.90;;;9.83;;
10311;SDS011;5201;48.776;9.128;2023-03-01T06:49:24;18.43;;;9.90;;
10311;SDS011;5201;48.776;9.128;2023-03-01T06:51:50;18.13;;;11.07;;
10311;SDS011;5201;48.776;9.128;2023-03-01T06:54:15;16.23;;;10.17;;
10311;SDS011;5201;48.776;9.128;2023-03-01T06:56:42;17.53;;;10.17;;
10311;SDS011;5201;48.776;9.128;2023-03-01T06:59:08;17.87;;;11.07;;
10311;SDS011;5201;48.776;9.128;2023-03-01T07:01:33;17.70;;;11.37;;
10311;SDS011;5201;48.776;9.128;2023-03-01T07:03:59;20.90;;;11.00;;
10311;SDS011;5201;48.776;9.128;2023-03-01T07:06:24;25.90;;;10.53;;
10311;SDS011;5201;48.776;9.128;2023-03-01T07:08:50;20.17;;;10.53;;
10311;SDS011;5201;48.776;9.128;2023-03-01T07:11:16;20.17;;;10.77;;
10311;SDS011;5201;48.776;9.128;2023-03-01T07:13:41;20.60;;;10.97;;
10311;SDS011;5201;48.776;9.128;2023-03-01T07:16:07;18.07;;;11.17;;
10311;SDS011;5201;48.776;9.128;2023-03-01T07:18:33;17.97;;;11.00;;
10311;SDS011;5201;48.776;9.128;2023-03-01T07:21:03;19.20;;;10.33;;
10311;SDS011;5201;48.776;9.128;2023-03-01T07:23:29;18.73;;;9.33;;
10311;SDS011;5201;48.776;9.128;2023-03-01T07:25:55;17.73;;;11.13;;
10311;SDS011;5201;48.776;9.128;2023-03-01T07:28:22;16.30;;;10.77;;
10311;SDS011;5201;48.776;9.128;2023-03-01T07:30:48;18.77;;;10.53;;
10311;SDS011;5201;48.776;9.128;2023-03-01T07:33:14;16.70;;;9.43;;
10311;SDS011;5201;48.776;9.128;2023-03-01T07:35:39;19.83;;;11.17;;
10311;SDS011;5201;48.776;9.128;2023-03-01T07:38:05;17.23;;;10.83;;
10311;SDS011;5201;48.776;9.128;2023-03-01T07:40:30;16.60;;;10.07;;
10311;SDS011;5201;48.776;9.128;2023-03-01T07:42:56;18.90;;;10.67;;
10311;SDS011;5201;48.776;9.128;2023-03-01T07:45:23;19.13;;;11.10;;
10311;SDS011;5201;48.776;9.128;2023-03-01T07:47:50;17.60;;;10.43;;
10311;SDS011;5201;48.776;9.128;2023-03-01T07:50:16;23.90;;;11.10;;
10311;SDS011;5201;48.776;9.128;2023-03-01T07:52:44;20.63;;;11.30;;
10311;SDS011;5201;48.776;9.128;2023-03-01T07:55:10;16.60;;;10.43;;
10311;SDS011;5201;48.776;9.128;2023-03-01T07:57:36;19.03;;;10.57;;
10311;SDS011;5201;48.776;9.128;2023-03-01T08:00:01;19.93;;;12.17;;
10311;SDS011;5201;48.776;9.128;2023-03-01T08:02:27;18.33;;;10.57;;
10311;SDS011;5201;48.776;9.128;2023-03-01T08:04:53;18.23;;;10.80;;
10311;SDS011;5201;48.776;9.128;2023-03-01T08:07:18;20.60;;;10.60;;
10311;SDS011;5201;48.776;9.128;2023-03-01T08:09:44;17.13;;;9.87;;
10311;SDS011;5201;48.776;9.128;2023-03-01T08:12:09;18.37;;;10.60;;
10311;SDS011;5201;48.776;9.128;2023-03-01T08:14:35;14.17;;;9.87;;
10311;SDS011;5201;48.776;9.128;2023-03-01T08:17:01;15.60;;;9.53;;
10311;SDS011;5201;48.776;9.128;2023-03-01T08:19:28;18.90;;;10.83;;
10311;SDS011;5201;48.776;9.128;2023-03-01T08:21:54;17.63;;;10.30;;
10311;SDS011;5201;48.776;9.128;2023-03-01T08:24:23;16.67;;;10.07;;
10311;SDS011;5201;48.776;9.128;2023-03-01T08:26:48;17.60;;;10.53;;
10311;SDS011;5201;48.776;9.128;2023-03-01T08:29:14;20.53;;;11.13;;
10311;SDS011;5201;48.776;9.128;2023-03-01T08:31:40;18.63;;;11.00;;
10311;SDS011;5201;48.776;9.128;2023-03-01T08:34:07;19.47;;;10.83;;
10311;SDS011;5201;48.776;9.128;2023-03-01T08:36:35;17.00;;;10.10;;
10311;SDS011;5201;48.776;9.128;2023-03-01T08:39:03;19.07;;;10.63;;
10311;SDS011;5201;48.776;9.128;2023-03-01T08:41:29;23.50;;;11.30;;
10311;SDS011;5201;48.776;9.128;2023-03-01T08:43:56;18.37;;;10.60;;
10311;SDS011;5201;48.776;9.128;2023-03-01T08:46:28;18.03;;;10.37;;
10311;SDS011;5201;48.776;9.128;2023-03-01T08:48:55;21.40;;;10.53;;
10311;SDS011;5201;48.776;9.128;2023-03-01T08:51:21;18.37;;;10.80;;
10311;SDS011;5201;48.776;9.128;2023-03-01T08:53:48;16.40;;;10.03;;
10311;SDS011;5201;48.776;9.128;2023-03-01T08:56:14;16.43;;;10.37;;
10311;SDS011;5201;48.776;9.128;2023-03-01T08:58:43;18.10;;;10.67;;
10311;SDS011;5201;48.776;9.128;2023-03-01T09:01:10;20.97;;;10.53;;
10311;SDS011;5201;48.776;9.128;2023-03-01T09:03:37;16.70;;;10.07;;
10311;SDS011;5201;48.776;9.128;2023-03-01T09:06:03;18.07;;;11.00;;
10311;SDS011;5201;48.776;9.128;2023-03-01T09:08:31;20.00;;;10.83;;
10311;SDS011;5201;48.776;9.128;2023-03-01T09:11:03;23.90;;;11.70;;
10311;SDS011;5201;48.776;9.128;2023-03-01T09:13:30;20.97;;;10.93;;
10311;SDS011;5201;48.776;9.128;2023-03-01T09:15:56;17.33;;;10.70;;
10311;SDS011;5201;48.776;9.128;2023-03-01T09:18:22;18.13;;;10.67;;
10311;SDS011;5201;48.776;9.128;2023-03-01T09:20:48;18.80;;;10.70;;
10311;SDS011;5201;48.776;9.128;2023-03-01T09:23:14;15.80;;;9.97;;
10311;SDS011;5201;48.776;9.128;2023-03-01T09:25:39;16.83;;;10.77;;
10311;SDS011;5201;48.776;9.128;2023-03-01T09:28:05;19.70;;;11.13;;
10311;SDS011;5201;48.776;9.128;2023-03-01T09:30:30;19.17;;;10.63;;
10311;SDS011;5201;48.776;9.128;2023-03-01T09:32:56;19.10;;;11.17;;
10311;SDS011;5201;48.776;9.128;2023-03-01T09:35:22;15.00;;;10.10;;
10311;SDS011;5201;48.776;9.128;2023-03-01T09:37:48;21.00;;;10.67;;
10311;SDS011;5201;48.776;9.128;2023-03-01T09:40:16;19.10;;;10.80;;
10311;SDS011;5201;48.776;9.128;2023-03-01T09:42:52;20.23;;;11.87;;
10311;SDS011;5201;48.776;9.128;2023-03-01T09:45:27;20.40;;;10.47;;
10311;SDS011;5201;48.776;9.128;2023-03-01T09:47:58;22.27;;;11.23;;
10311;SDS011;5201;48.776;9.128;2023-03-01T09:50:26;15.03;;;10.37;;
10311;SDS011;5201;48.776;9.128;2023-03-01T09:55:31;15.53;;;10.50;;
10311;SDS011;5201;48.776;9.128;2023-03-01T10:03:41;20.17;;;11.13;;
10311;SDS011;5201;48.776;9.128;2023-03-01T10:06:11;21.07;;;10.37;;
10311;SDS011;5201;48.776;9.128;2023-03-01T10:16:43;17.80;;;11.40;;
10311;SDS011;5201;48.776;9.128;2023-03-01T10:19:34;17.50;;;10.70;;
10311;SDS011;5201;48.776;9.128;2023-03-01T10:22:22;16.23;;;10.30;;
10311;SDS011;5201;48.776;9.128;2023-03-01T10:24:53;18.60;;;9.87;;
10311;SDS011;5201;48.776;9.128;2023-03-01T10:27:22;19.77;;;10.47;;
10311;SDS011;5201;48.776;9.128;2023-03-01T10:29:54;19.47;;;10.93;;
10311;SDS011;5201;48.776;9.128;2023-03-01T10:32:23;17.67;;;9.10;;
10311;SDS011;5201;48.776;9.128;2023-03-01T10:34:49;13.30;;;9.10;;
10311;SDS011;5201;48.776;9.128;2023-03-01T10:37:16;18.77;;;9.67;;
10311;SDS011;5201;48.776;9.128;2023-03-01T10:42:33;16.27;;;9.63;;
10311;SDS011;5201;48.776;9.128;2023-03-01T10:45:27;19.37;;;10.30;;
10311;SDS011;5201;48.776;9.128;2023-03-01T10:48:04;14.73;;;9.77;;
10311;SDS011;5201;48.776;9.128;2023-03-01T10:50:33;16.20;;;9.80;;
10311;SDS011;5201;48.776;9.128;2023-03-01T10:53:01;15.00;;;10.13;;
10311;SDS011;5201;48.776;9.128;2023-03-01T10:55:33;16.57;;;10.37;;
10311;SDS011;5201;48.776;9.128;2023-03-01T11:00:48;18.07;;;10.73;;
10311;SDS011;5201;48.776;9.128;2023-03-01T11:03:19;16.40;;;8.97;;
10311;SDS011;5201;48.776;9.128;2023-03-01T11:08:45;15.83;;;9.97;;
10311;SDS011;5201;48.776;9.128;2023-03-01T11:16:29;16.93;;;9.57;;
10311;SDS011;5201;48.776;9.128;2023-03-01T11:19:03;20.53;;;9.93;;
10311;SDS011;5201;48.776;9.128;2023-03-01T11:21:36;16.23;;;9.03;;
10311;SDS011;5201;48.776;9.128;2023-03-01T11:24:11;17.80;;;10.23;;
10311;SDS011;5201;48.776;9.128;2023-03-01T11:26:40;17.37;;;10.97;;
10311;SDS011;5201;48.776;9.128;2023-03-01T11:29:12;15.67;;;9.83;;
10311;SDS011;5201;48.776;9.128;2023-03-01T11:31:46;17.00;;;9.93;;
10311;SDS011;5201;48.776;9.128;2023-03-01T11:34:16;16.40;;;10.20;;
10311;SDS011;5201;48.776;9.128;2023-03-01T11:36:52;14.60;;;10.40;;
10311;SDS011;5201;48.776;9.128;2023-03-01T11:39:31;16.57;;;8.90;;
10311;SDS011;5201;48.776;9.128;2023-03-01T11:42:20;21.33;;;10.47;;
10311;SDS011;5201;48.776;9.128;2023-03-01T11:45:06;20.47;;;10.77;;
10311;SDS011;5201;48.776;9.128;2023-03-01T11:50:46;17.57;;;9.47;;
10311;SDS011;5201;48.776;9.128;2023-03-01T12:01:32;17.17;;;9.53;;
10311;SDS011;5201;48.776;9.128;2023-03-01T12:07:27;22.97;;;11.17;;
10311;SDS011;5201;48.776;9.128;2023-03-01T12:18:38;16.20;;;9.10;;
10311;SDS011;5201;48.776;9.128;2023-03-01T12:21:29;14.30;;;9.37;;
10311;SDS011;5201;48.776;9.128;2023-03-01T12:26:45;14.70;;;9.93;;
10311;SDS011;5201;48.776;9.128;2023-03-01T12:30:25;15.10;;;8.47;;
10311;SDS011;5201;48.776;9.128;2023-03-01T12:36:06;14.87;;;9.20;;
10311;SDS011;5201;48.776;9.128;2023-03-01T12:38:35;14.97;;;8.53;;
10311;SDS011;5201;48.776;9.128;2023-03-01T12:49:26;16.53;;;10.13;;
10311;SDS011;5201;48.776;9.128;2023-03-01T12:51:58;13.50;;;8.43;;
10311;SDS011;5201;48.776;9.128;2023-03-01T12:54:31;20.20;;;9.60;;
10311;SDS011;5201;48.776;9.128;2023-03-01T12:57:03;14.07;;;8.80;;
10311;SDS011;5201;48.776;9.128;2023-03-01T12:59:51;11.40;;;8.23;;
10311;SDS011;5201;48.776;9.128;2023-03-01T13:02:49;19.17;;;9.20;;
10311;SDS011;5201;48.776;9.128;2023-03-01T13:08:20;13.87;;;8.40;;
10311;SDS011;5201;48.776;9.128;2023-03-01T13:11:02;14.27;;;8.40;;
10311;SDS011;5201;48.776;9.128;2023-03-01T13:13:30;14.07;;;8.67;;
10311;SDS011;5201;48.776;9.128;2023-03-01T13:15:56;15.30;;;9.40;;
10311;SDS011;5201;48.776;9.128;2023-03-01T13:18:42;16.47;;;9.23;;
10311;SDS011;5201;48.776;9.128;2023-03-01T13:21:08;13.80;;;7.10;;
10311;SDS011;5201;48.776;9.128;2023-03-01T13:23:35;14.63;;;8.33;;
10311;SDS011;5201;48.776;9.128;2023-03-01T13:26:10;13.47;;;8.20;;
10311;SDS011;5201;48.776;9.128;2023-03-01T13:28:46;14.80;;;8.93;;
10311;SDS011;5201;48.776;9.128;2023-03-01T13:33:48;16.97;;;8.90;;
10311;SDS011;5201;48.776;9.128;2023-03-01T13:46:57;16.07;;;9.00;;
10311;SDS011;5201;48.776;9.128;2023-03-01T13:49:33;16.73;;;9.63;;
10311;SDS011;5201;48.776;9.128;2023-03-01T13:52:36;19.30;;;9.70;;
10311;SDS011;5201;48.776;9.128;2023-03-01T13:57:38;18.87;;;9.97;;
10311;SDS011;5201;48.776;9.128;2023-03-01T14:00:06;13.70;;;8.50;;
10311;SDS011;5201;48.776;9.128;2023-03-01T14:02:59;13.07;;;8.57;;
10311;SDS011;5201;48.776;9.128;2023-03-01T14:05:34;18.47;;;8.87;;
10311;SDS011;5201;48.776;9.128;2023-03-01T14:08:01;21.60;;;9.77;;
10311;SDS011;5201;48.776;9.128;2023-03-01T14:10:52;15.60;;;8.83;;
10311;SDS011;5201;48.776;9.128;2023-03-01T14:15:56;17.13;;;9.90;;
10311;SDS011;5201;48.776;9.128;2023-03-01T14:18:39;17.20;;;10.10;;
10311;SDS011;5201;48.776;9.128;2023-03-01T14:21:12;17.07;;;9.90;;
10311;SDS011;5201;48.776;9.128;2023-03-01T14:23:39;19.03;;;10.37;;
10311;SDS011;5201;48.776;9.128;2023-03-01T14:26:07;19.87;;;9.73;;
10311;SDS011;5201;48.776;9.128;2023-03-01T14:28:33;19.07;;;11.23;;
10311;SDS011;5201;48.776;9.128;2023-03-01T14:31:04;20.47;;;11.50;;
10311;SDS011;5201;48.776;9.128;2023-03-01T14:34:03;16.17;;;10.03;;
10311;SDS011;5201;48.776;9.128;2023-03-01T14:36:30;17.93;;;10.07;;
10311;SDS011;5201;48.776;9.128;2023-03-01T14:38:58;19.53;;;11.37;;
10311;SDS011;5201;48.776;9.128;2023-03-01T14:41:30;19.37;;;10.97;;
10311;SDS011;5201;48.776;9.128;2023-03-01T14:44:06;20.73;;;9.60;;
10311;SDS011;5201;48.776;9.128;2023-03-01T14:46:41;20.10;;;10.80;;
10311;SDS011;5201;48.776;9.128;2023-03-01T14:49:10;18.37;;;10.10;;
10311;SDS011;5201;48.776;9.128;2023-03-01T14:51:41;18.73;;;10.50;;
10311;SDS011;5201;48.776;9.128;2023-03-01T14:57:05;20.63;;;10.80;;
10311;SDS011;5201;48.776;9.128;2023-03-01T14:59:37;17.63;;;10.33;;
10311;SDS011;5201;48.776;9.128;2023-03-01T15:02:02;17.50;;;10.17;;
10311;SDS011;5201;48.776;9.128;2023-03-01T15:04:28;15.23;;;9.70;;
10311;SDS011;5201;48.776;9.128;2023-03-01T15:06:55;21.87;;;11.37;;
10311;SDS011;5201;48.776;9.128;2023-03-01T15:09:29;18.37;;;10.07;;
10311;SDS011;5201;48.776;9.128;2023-03-01T15:11:58;14.83;;;9.70;;
10311;SDS011;5201;48.776;9.128;2023-03-01T15:14:28;18.90;;;10.53;;
10311;SDS011;5201;48.776;9.128;2023-03-01T15:17:05;17.13;;;8.77;;
10311;SDS011;5201;48.776;9.128;2023-03-01T15:19:40;16.10;;;10.07;;
10311;SDS011;5201;48.776;9.128;2023-03-01T15:22:12;19.17;;;10.60;;
10311;SDS011;5201;48.776;9.128;2023-03-01T15:24:41;13.70;;;8.43;;
10311;SDS011;5201;48.776;9.128;2023-03-01T15:27:17;19.20;;;10.30;;
10311;SDS011;5201;48.776;9.128;2023-03-01T15:29:55;20.60;;;9.27;;
10311;SDS011;5201;48.776;9.128;2023-03-01T15:32:33;17.13;;;9.83;;
10311;SDS011;5201;48.776;9.128;2023-03-01T15:38:00;20.20;;;10.80;;
10311;SDS011;5201;48.776;9.128;2023-03-01T15:40:29;16.33;;;9.67;;
10311;SDS011;5201;48.776;9.128;2023-03-01T15:42:58;21.07;;;11.03;;
10311;SDS011;5201;48.776;9.128;2023-03-01T15:45:29;21.10;;;10.80;;
10311;SDS011;5201;48.776;9.128;2023-03-01T15:48:02;17.20;;;9.43;;
10311;SDS011;5201;48.776;9.128;2023-03-01T15:52:58;19.13;;;9.63;;
10311;SDS011;5201;48.776;9.128;2023-03-01T15:55:25;15.40;;;9.03;;
10311;SDS011;5201;48.776;9.128;2023-03-01T15:57:59;15.83;;;9.27;;
10311;SDS011;5201;48.776;9.128;2023-03-01T16:00:49;17.90;;;9.37;;
10311;SDS011;5201;48.776;9.128;2023-03-01T16:03:21;19.97;;;11.23;;
10311;SDS011;5201;48.776;9.128;2023-03-01T16:05:50;17.60;;;10.30;;
10311;SDS011;5201;48.776;9.128;2023-03-01T16:08:17;19.87;;;11.10;;
10311;SDS011;5201;48.776;9.128;2023-03-01T16:10:43;18.17;;;11.00;;
10311;SDS011;5201;48.776;9.128;2023-03-01T16:13:13;16.20;;;8.47;;
10311;SDS011;5201;48.776;9.128;2023-03-01T16:15:39;14.63;;;7.93;;
10311;SDS011;5201;48.776;9.128;2023-03-01T16:18:05;16.87;;;10.67;;
10311;SDS011;5201;48.776;9.128;2023-03-01T16:20:32;18.13;;;10.10;;
10311;SDS011;5201;48.776;9.128;2023-03-01T16:22:59;17.63;;;9.90;;
10311;SDS011;5201;48.776;9.128;2023-03-01T16:25:26;17.60;;;10.87;;
10311;SDS011;5201;48.776;9.128;2023-03-01T16:27:51;17.33;;;10.57;;
10311;SDS011;5201;48.776;9.128;2023-03-01T16:30:18;20.83;;;10.07;;
10311;SDS011;5201;48.776;9.128;2023-03-01T16:32:45;21.20;;;11.13;;
10311;SDS011;5201;48.776;9.128;2023-03-01T16:35:12;18.07;;;10.50;;
10311;SDS011;5201;48.776;9.128;2023-03-01T16:37:39;19.17;;;10.33;;
10311;SDS011;5201;48.776;9.128;2023-03-01T16:40:06;21.30;;;10.57;;
10311;SDS011;5201;48.776;9.128;2023-03-01T16:42:40;17.57;;;10.77;;